Time;durP1;ratioP1;P1;durP2;ratioP2;P2;SDS_P1;SDS_P2;PMS_P1;PMS_P2;Temp;Humidity;BMP_temperature;BMP_pressure;BME280_temperature;BME280_humidity;BME280_pressure;Samples;Min_cycle;Max_cycle;Signal;HPM_P1;HPM_P2
2023/04/22 00:00:27;;;;;;;4.77;4.27;;;;;;;;;;5006736;28;20359;-86
2023/04/22 00:02:54;;;;;;;4.57;4.17;;;;;;;;;;5022171;28;20215;-87
2023/04/22 00:05:20;;;;;;;5.53;4.60;;;;;;;;;;5029705;28;20250;-87
2023/04/22 00:07:46;;;;;;;4.63;3.90;;;;;;;;;;5024102;28;20214;-89
2023/04/22 00:10:16;;;;;;;5.33;4.30;;;;;;;;;;5022831;28;20210;-86
2023/04/22 00:12:44;;;;;;;5.93;4.60;;;;;;;;;;5021089;28;20215;-87
2023/04/22 00:15:09;;;;;;;6.73;4.30;;;;;;;;;;5040603;28;20238;-87
2023/04/22 00:17:35;;;;;;;6.27;4.13;;;;;;;;;;5027531;28;20226;-86
2023/04/22 00:20:04;;;;;;;5.83;4.37;;;;;;;;;;5034026;28;20223;-86
2023/04/22 00:22:32;;;;;;;8.77;4.40;;;;;;;;;;5053898;28;20219;-88
2023/04/22 00:25:00;;;;;;;4.53;4.07;;;;;;;;;;5023190;28;20203;-86
2023/04/22 00:27:28;;;;;;;5.87;4.83;;;;;;;;;;5009630;28;20222;-87
2023/04/22 00:29:58;;;;;;;5.00;4.33;;;;;;;;;;5020675;28;20723;-88
2023/04/22 00:32:23;;;;;;;4.80;4.40;;;;;;;;;;5053987;28;20233;-87
2023/04/22 00:34:49;;;;;;;5.70;4.50;;;;;;;;;;5018983;28;20231;-85
2023/04/22 00:37:15;;;;;;;5.97;4.73;;;;;;;;;;5021827;28;20613;-88
2023/04/22 00:39:40;;;;;;;5.90;4.30;;;;;;;;;;5022565;28;20219;-88
2023/04/22 00:42:08;;;;;;;7.50;5.03;;;;;;;;;;5053830;28;20266;-87
2023/04/22 00:44:34;;;;;;;10.47;4.97;;;;;;;;;;5032754;28;20298;-88
2023/04/22 00:47:02;;;;;;;4.80;4.40;;;;;;;;;;5022788;28;20647;-86
2023/04/22 00:49:28;;;;;;;6.13;4.47;;;;;;;;;;5024116;28;20658;-89
2023/04/22 00:51:54;;;;;;;5.90;4.50;;;;;;;;;;5023783;28;20223;-89
2023/04/22 00:54:22;;;;;;;6.30;4.50;;;;;;;;;;5051356;28;20252;-88
2023/04/22 00:56:52;;;;;;;6.33;4.47;;;;;;;;;;5023071;28;20314;-87
2023/04/22 00:59:20;;;;;;;5.63;4.80;;;;;;;;;;5023023;28;20275;-88
2023/04/22 01:01:53;;;;;;;4.77;4.30;;;;;;;;;;5035601;28;20302;-87
2023/04/22 01:04:21;;;;;;;5.57;5.07;;;;;;;;;;5035065;28;20277;-88
2023/04/22 01:06:54;;;;;;;6.13;4.87;;;;;;;;;;5018172;28;20601;-87
2023/04/22 01:09:19;;;;;;;5.30;4.80;;;;;;;;;;5014384;28;20220;-87
2023/04/22 01:11:48;;;;;;;6.63;4.73;;;;;;;;;;5020871;28;20259;-85
2023/04/22 01:14:16;;;;;;;6.70;4.97;;;;;;;;;;5010128;28;20233;-86
2023/04/22 01:16:47;;;;;;;6.40;4.90;;;;;;;;;;5041086;28;20231;-86
2023/04/22 01:19:15;;;;;;;6.27;5.00;;;;;;;;;;5016126;28;20268;-88
2023/04/22 01:21:43;;;;;;;7.87;5.10;;;;;;;;;;5031907;28;20226;-87
2023/04/22 01:24:09;;;;;;;5.33;4.63;;;;;;;;;;5060646;28;20230;-88
2023/04/22 01:26:35;;;;;;;7.77;5.13;;;;;;;;;;4998649;28;20215;-85
2023/04/22 01:29:03;;;;;;;5.30;4.80;;;;;;;;;;5023417;28;20246;-87
2023/04/22 01:31:29;;;;;;;5.47;4.80;;;;;;;;;;5019851;28;20245;-86
2023/04/22 01:33:57;;;;;;;6.20;5.27;;;;;;;;;;5010063;28;20230;-85
2023/04/22 01:36:28;;;;;;;6.37;5.33;;;;;;;;;;5017700;28;20220;-87
2023/04/22 01:38:56;;;;;;;5.90;5.03;;;;;;;;;;5032244;28;20220;-87
2023/04/22 01:41:25;;;;;;;6.47;5.00;;;;;;;;;;4993497;28;20274;-86
2023/04/22 01:43:54;;;;;;;8.13;5.07;;;;;;;;;;5050071;28;20697;-87
2023/04/22 01:46:19;;;;;;;5.83;5.23;;;;;;;;;;5026341;28;20222;-86
2023/04/22 01:48:50;;;;;;;6.70;5.23;;;;;;;;;;5016999;28;20285;-87
2023/04/22 01:51:22;;;;;;;6.13;5.20;;;;;;;;;;5016665;28;20246;-86
2023/04/22 01:53:50;;;;;;;9.93;5.10;;;;;;;;;;5019970;28;20215;-86
2023/04/22 01:56:16;;;;;;;6.63;5.07;;;;;;;;;;5021343;28;20257;-86
2023/04/22 01:58:43;;;;;;;5.60;5.10;;;;;;;;;;5013160;28;20242;-87
2023/04/22 02:01:09;;;;;;;8.23;5.30;;;;;;;;;;5008936;28;20230;-86
2023/04/22 02:03:36;;;;;;;5.80;5.20;;;;;;;;;;5052344;28;20893;-85
2023/04/22 02:06:02;;;;;;;5.83;5.23;;;;;;;;;;5018204;28;20240;-87
2023/04/22 02:08:28;;;;;;;5.83;5.33;;;;;;;;;;5007644;28;20806;-86
2023/04/22 02:10:53;;;;;;;6.27;5.47;;;;;;;;;;5020141;28;20219;-86
2023/04/22 02:13:19;;;;;;;6.00;5.43;;;;;;;;;;5013806;28;21123;-86
2023/04/22 02:15:49;;;;;;;7.10;5.57;;;;;;;;;;5017600;28;20263;-87
2023/04/22 02:18:16;;;;;;;6.13;5.53;;;;;;;;;;5018528;28;20214;-87
2023/04/22 02:20:42;;;;;;;6.20;5.60;;;;;;;;;;5015294;28;20251;-88
2023/04/22 02:23:11;;;;;;;6.40;5.57;;;;;;;;;;5016601;28;20227;-85
2023/04/22 02:25:37;;;;;;;6.37;5.60;;;;;;;;;;5058752;28;20242;-86
2023/04/22 02:28:05;;;;;;;9.07;5.77;;;;;;;;;;5023492;28;20233;-86
2023/04/22 02:30:35;;;;;;;6.70;6.00;;;;;;;;;;5040877;28;20584;-87
2023/04/22 02:33:00;;;;;;;6.10;5.50;;;;;;;;;;5029850;28;20253;-89
2023/04/22 02:35:26;;;;;;;7.60;6.10;;;;;;;;;;5035941;28;20223;-87
2023/04/22 02:37:51;;;;;;;8.40;5.73;;;;;;;;;;5036444;28;20219;-85
2023/04/22 02:40:19;;;;;;;8.33;5.90;;;;;;;;;;5037668;28;20215;-86
2023/04/22 02:42:47;;;;;;;7.50;5.70;;;;;;;;;;5009826;28;20236;-86
2023/04/22 02:45:13;;;;;;;6.53;5.90;;;;;;;;;;5022314;28;20213;-87
2023/04/22 02:47:39;;;;;;;7.83;6.23;;;;;;;;;;5004111;28;20224;-87
2023/04/22 02:50:09;;;;;;;7.40;6.00;;;;;;;;;;5025384;28;20223;-86
2023/04/22 02:52:35;;;;;;;8.57;6.30;;;;;;;;;;5009593;28;20218;-86
2023/04/22 02:55:00;;;;;;;6.73;5.83;;;;;;;;;;5010111;28;20242;-85
2023/04/22 02:57:28;;;;;;;6.77;6.07;;;;;;;;;;5023399;28;20218;-87
2023/04/22 02:59:54;;;;;;;7.00;6.30;;;;;;;;;;5032476;28;20218;-85
2023/04/22 03:02:22;;;;;;;7.30;6.30;;;;;;;;;;5022605;28;20221;-86
2023/04/22 03:05:07;;;;;;;6.37;5.83;;;;;;;;;;5025257;28;20593;-87
2023/04/22 03:07:33;;;;;;;6.93;6.10;;;;;;;;;;5021183;28;20225;-87
2023/04/22 03:10:01;;;;;;;6.57;5.90;;;;;;;;;;5003693;28;20573;-88
2023/04/22 03:12:31;;;;;;;7.20;6.50;;;;;;;;;;5020673;28;20221;-87
2023/04/22 03:14:59;;;;;;;6.43;5.93;;;;;;;;;;5016532;28;20223;-86
2023/04/22 03:17:31;;;;;;;6.73;6.13;;;;;;;;;;5028095;28;20306;-86
2023/04/22 03:20:02;;;;;;;8.00;6.20;;;;;;;;;;5049580;28;20212;-87
2023/04/22 03:22:28;;;;;;;8.17;6.40;;;;;;;;;;5015518;28;20218;-88
2023/04/22 03:24:56;;;;;;;6.83;6.13;;;;;;;;;;4998152;28;20298;-88
2023/04/22 03:27:25;;;;;;;7.17;6.47;;;;;;;;;;5019186;28;20223;-85
2023/04/22 03:29:53;;;;;;;7.30;6.57;;;;;;;;;;5029803;28;20695;-87
2023/04/22 03:32:19;;;;;;;8.70;7.10;;;;;;;;;;5018029;28;20225;-86
2023/04/22 03:34:46;;;;;;;7.63;6.50;;;;;;;;;;5011080;28;20675;-86
2023/04/22 03:37:12;;;;;;;8.27;6.80;;;;;;;;;;5026802;28;20226;-84
2023/04/22 03:39:38;;;;;;;7.73;6.93;;;;;;;;;;5022670;28;20214;-86
2023/04/22 03:42:07;;;;;;;7.53;6.73;;;;;;;;;;5057600;28;20295;-86
2023/04/22 03:44:39;;;;;;;7.80;7.10;;;;;;;;;;5035039;28;20276;-86
2023/04/22 03:47:07;;;;;;;9.33;6.97;;;;;;;;;;5022436;28;20226;-86
2023/04/22 03:49:39;;;;;;;7.80;7.00;;;;;;;;;;5056462;28;20214;-87
2023/04/22 03:52:09;;;;;;;7.83;7.03;;;;;;;;;;5023693;28;20300;-86
2023/04/22 03:54:39;;;;;;;8.50;7.40;;;;;;;;;;5018878;28;20218;-88
2023/04/22 03:57:14;;;;;;;8.07;6.77;;;;;;;;;;5007043;28;20306;-80
2023/04/22 03:59:40;;;;;;;7.80;6.80;;;;;;;;;;5033187;28;20234;-79
2023/04/22 04:02:06;;;;;;;9.43;6.67;;;;;;;;;;5028230;28;20704;-79
2023/04/22 04:04:33;;;;;;;8.03;6.93;;;;;;;;;;5003132;28;20234;-80
2023/04/22 04:07:02;;;;;;;7.70;7.00;;;;;;;;;;5017335;28;20964;-79
2023/04/22 04:09:28;;;;;;;8.53;7.07;;;;;;;;;;5017862;28;20227;-79
2023/04/22 04:11:55;;;;;;;7.50;6.77;;;;;;;;;;5017431;28;20226;-79
2023/04/22 04:14:21;;;;;;;8.17;7.03;;;;;;;;;;5028644;28;20963;-79
2023/04/22 04:16:50;;;;;;;9.37;7.23;;;;;;;;;;5034669;28;20280;-79
2023/04/22 04:19:25;;;;;;;12.10;7.43;;;;;;;;;;5020155;28;20225;-80
2023/04/22 04:21:50;;;;;;;7.70;7.00;;;;;;;;;;5036563;28;20215;-80
2023/04/22 04:24:18;;;;;;;8.70;6.93;;;;;;;;;;5033249;28;20244;-80
2023/04/22 04:26:47;;;;;;;8.13;7.17;;;;;;;;;;5017910;28;20215;-79
2023/04/22 04:29:20;;;;;;;9.00;8.00;;;;;;;;;;5018978;28;20207;-80
2023/04/22 04:31:56;;;;;;;7.83;7.03;;;;;;;;;;5032380;28;20234;-79
2023/04/22 04:34:24;;;;;;;7.67;6.90;;;;;;;;;;5009754;28;20227;-79
2023/04/22 04:36:53;;;;;;;9.13;7.27;;;;;;;;;;5027447;28;20249;-79
2023/04/22 04:39:27;;;;;;;8.27;7.50;;;;;;;;;;5020322;28;20367;-80
2023/04/22 04:41:57;;;;;;;8.10;7.30;;;;;;;;;;5019031;28;20751;-80
2023/04/22 04:44:25;;;;;;;10.23;7.70;;;;;;;;;;5033749;28;20223;-81
2023/04/22 04:46:53;;;;;;;7.97;6.83;;;;;;;;;;5019631;28;21708;-80
2023/04/22 04:49:19;;;;;;;8.07;7.27;;;;;;;;;;5012409;28;20219;-80
2023/04/22 04:51:54;;;;;;;8.20;7.40;;;;;;;;;;5015789;28;20309;-80
2023/04/22 04:54:22;;;;;;;7.83;7.07;;;;;;;;;;5044857;28;20705;-81
2023/04/22 04:56:51;;;;;;;8.10;7.30;;;;;;;;;;5045945;28;20219;-81
2023/04/22 04:59:18;;;;;;;8.07;7.27;;;;;;;;;;5043243;28;20660;-81
2023/04/22 05:01:44;;;;;;;8.03;7.33;;;;;;;;;;5017447;28;20228;-81
2023/04/22 05:04:11;;;;;;;7.97;7.27;;;;;;;;;;5059770;28;20311;-80
2023/04/22 05:06:39;;;;;;;8.00;7.10;;;;;;;;;;5011272;28;20227;-80
2023/04/22 05:09:06;;;;;;;8.73;7.13;;;;;;;;;;5021552;28;20234;-79
2023/04/22 05:11:33;;;;;;;8.90;7.10;;;;;;;;;;5041782;28;20227;-78
2023/04/22 05:14:01;;;;;;;8.63;7.20;;;;;;;;;;5031904;28;20317;-81
2023/04/22 05:16:33;;;;;;;8.73;7.83;;;;;;;;;;5007945;28;20226;-79
2023/04/22 05:19:01;;;;;;;8.37;7.53;;;;;;;;;;5026726;28;20234;-80
2023/04/22 05:21:27;;;;;;;7.60;6.87;;;;;;;;;;5047927;28;21183;-80
2023/04/22 05:23:53;;;;;;;10.37;7.33;;;;;;;;;;5017937;28;20228;-79
2023/04/22 05:26:18;;;;;;;8.40;7.60;;;;;;;;;;5000101;28;20214;-80
2023/04/22 05:28:46;;;;;;;7.47;6.60;;;;;;;;;;5004560;28;20233;-80
2023/04/22 05:31:12;;;;;;;10.40;7.53;;;;;;;;;;5017559;28;20226;-80
2023/04/22 05:33:40;;;;;;;8.03;7.17;;;;;;;;;;5002360;28;20222;-80
2023/04/22 05:36:06;;;;;;;8.10;7.23;;;;;;;;;;5016337;28;20647;-80
2023/04/22 05:38:31;;;;;;;9.20;7.17;;;;;;;;;;5044628;28;20223;-80
2023/04/22 05:40:57;;;;;;;8.10;7.30;;;;;;;;;;5032508;28;20248;-80
2023/04/22 05:43:23;;;;;;;7.90;7.03;;;;;;;;;;5050901;28;20273;-79
2023/04/22 05:45:56;;;;;;;7.77;6.97;;;;;;;;;;5017794;28;20219;-79
2023/04/22 05:48:21;;;;;;;13.27;7.37;;;;;;;;;;5033808;28;20288;-79
2023/04/22 05:50:56;;;;;;;7.77;6.60;;;;;;;;;;5034939;28;20226;-79
2023/04/22 05:53:24;;;;;;;9.73;7.40;;;;;;;;;;5030877;28;20739;-79
2023/04/22 05:55:49;;;;;;;9.20;7.33;;;;;;;;;;5013535;28;20235;-79
2023/04/22 05:58:15;;;;;;;7.43;6.57;;;;;;;;;;5020366;28;20219;-79
2023/04/22 06:00:56;;;;;;;7.97;7.17;;;;;;;;;;5036110;28;20413;-81
2023/04/22 06:03:44;;;;;;;7.40;6.73;;;;;;;;;;5046833;28;20225;-83
2023/04/22 06:06:11;;;;;;;7.40;6.53;;;;;;;;;;5036224;28;20219;-83
2023/04/22 06:08:40;;;;;;;7.77;6.97;;;;;;;;;;5022408;28;20211;-82
2023/04/22 06:11:06;;;;;;;8.43;6.67;;;;;;;;;;5034840;28;20265;-80
2023/04/22 06:13:34;;;;;;;7.57;6.80;;;;;;;;;;5073774;28;20676;-79
2023/04/22 06:16:00;;;;;;;8.33;6.90;;;;;;;;;;5057141;28;20243;-81
2023/04/22 06:18:25;;;;;;;8.33;6.40;;;;;;;;;;5017951;28;20220;-81
2023/04/22 06:20:54;;;;;;;7.27;6.20;;;;;;;;;;5059106;28;20599;-79
2023/04/22 06:23:23;;;;;;;7.03;6.43;;;;;;;;;;5020457;28;20219;-80
2023/04/22 06:25:48;;;;;;;7.33;6.30;;;;;;;;;;5039356;28;20216;-78
2023/04/22 06:28:18;;;;;;;7.77;6.10;;;;;;;;;;5021659;28;20261;-80
2023/04/22 06:30:45;;;;;;;8.83;6.13;;;;;;;;;;5032817;28;20258;-79
2023/04/22 06:33:11;;;;;;;7.33;6.47;;;;;;;;;;5019991;28;20237;-79
2023/04/22 06:35:36;;;;;;;6.90;5.87;;;;;;;;;;5031206;28;20752;-80
2023/04/22 06:38:02;;;;;;;6.90;5.83;;;;;;;;;;5027552;28;20214;-81
2023/04/22 06:40:33;;;;;;;6.97;6.13;;;;;;;;;;5034080;28;20226;-78
2023/04/22 06:43:11;;;;;;;6.43;5.60;;;;;;;;;;5051212;28;20251;-80
2023/04/22 06:45:46;;;;;;;7.80;6.03;;;;;;;;;;5023754;28;20222;-79
2023/04/22 06:48:33;;;;;;;6.47;5.47;;;;;;;;;;5041922;28;20226;-79
2023/04/22 06:51:27;;;;;;;7.97;5.70;;;;;;;;;;5046501;28;20218;-82
2023/04/22 06:53:53;;;;;;;7.10;5.47;;;;;;;;;;5033749;28;20683;-80
2023/04/22 06:56:20;;;;;;;5.85;5.30;;;;;;;;;;5028689;28;20233;-80
2023/04/22 06:58:46;;;;;;;6.18;5.22;;;;;;;;;;5011950;28;20317;-79
2023/04/22 07:01:14;;;;;;;6.70;5.00;;;;;;;;;;5005264;28;20222;-78
2023/04/22 07:03:48;;;;;;;6.90;5.68;;;;;;;;;;5035305;28;21263;-81
2023/04/22 07:06:14;;;;;;;5.72;5.05;;;;;;;;;;5025196;28;20215;-78
2023/04/22 07:08:39;;;;;;;7.30;5.57;;;;;;;;;;5027331;28;20268;-80
2023/04/22 07:11:06;;;;;;;5.65;5.05;;;;;;;;;;5019788;28;20227;-80
2023/04/22 07:13:50;;;;;;;6.72;4.70;;;;;;;;;;5027602;28;20216;-79
2023/04/22 07:16:18;;;;;;;7.78;4.97;;;;;;;;;;5008798;28;20704;-79
2023/04/22 07:18:46;;;;;;;7.65;6.18;;;;;;;;;;5047820;28;20207;-81
2023/04/22 07:21:12;;;;;;;8.02;5.22;;;;;;;;;;5043660;28;20669;-79
2023/04/22 07:23:40;;;;;;;7.47;4.40;;;;;;;;;;5051013;28;20222;-79
2023/04/22 07:26:13;;;;;;;5.03;4.53;;;;;;;;;;5056525;28;20229;-78
2023/04/22 07:28:40;;;;;;;9.10;4.90;;;;;;;;;;5038977;28;20214;-82
2023/04/22 07:31:09;;;;;;;5.85;4.90;;;;;;;;;;5055208;28;20615;-79
2023/04/22 07:33:35;;;;;;;6.22;4.70;;;;;;;;;;5026620;28;20214;-81
2023/04/22 07:36:00;;;;;;;5.57;4.78;;;;;;;;;;5039687;28;20245;-79
2023/04/22 07:38:28;;;;;;;6.28;4.72;;;;;;;;;;5034232;28;20215;-78
2023/04/22 07:40:53;;;;;;;6.22;4.70;;;;;;;;;;5049740;28;20255;-79
2023/04/22 07:43:21;;;;;;;5.20;4.28;;;;;;;;;;5023419;28;20232;-79
2023/04/22 07:45:49;;;;;;;5.00;4.40;;;;;;;;;;5024021;28;20222;-81
2023/04/22 07:48:14;;;;;;;5.97;4.43;;;;;;;;;;5015867;28;20227;-81
2023/04/22 07:50:40;;;;;;;4.60;4.20;;;;;;;;;;5063706;28;20246;-81
2023/04/22 07:53:09;;;;;;;4.72;4.22;;;;;;;;;;5025352;28;20227;-81
2023/04/22 07:55:40;;;;;;;6.10;4.40;;;;;;;;;;5043603;28;20828;-80
2023/04/22 07:58:08;;;;;;;4.45;4.05;;;;;;;;;;5044350;28;20241;-81
2023/04/22 08:00:34;;;;;;;4.80;4.30;;;;;;;;;;5025108;28;20211;-81
2023/04/22 08:03:00;;;;;;;4.85;4.10;;;;;;;;;;5031725;28;20223;-81
2023/04/22 08:05:26;;;;;;;7.35;4.40;;;;;;;;;;5032175;28;20735;-81
2023/04/22 08:07:53;;;;;;;6.20;4.13;;;;;;;;;;5039717;28;20234;-81
2023/04/22 08:10:19;;;;;;;4.90;4.03;;;;;;;;;;5019759;28;20722;-78
2023/04/22 08:12:45;;;;;;;6.80;4.53;;;;;;;;;;5042098;28;20213;-79
2023/04/22 08:15:11;;;;;;;8.43;4.10;;;;;;;;;;5053782;28;20711;-78
2023/04/22 08:17:39;;;;;;;5.13;4.40;;;;;;;;;;5057907;28;20223;-82
2023/04/22 08:20:05;;;;;;;6.10;4.53;;;;;;;;;;5022920;28;20218;-82
2023/04/22 08:22:32;;;;;;;6.03;4.43;;;;;;;;;;5055472;28;20219;-81
2023/04/22 08:25:00;;;;;;;5.43;4.20;;;;;;;;;;5032402;28;20234;-80
2023/04/22 08:27:28;;;;;;;5.75;4.40;;;;;;;;;;5063679;28;20339;-80
2023/04/22 08:29:54;;;;;;;4.75;4.30;;;;;;;;;;5035911;28;20226;-79
2023/04/22 08:32:21;;;;;;;4.82;4.40;;;;;;;;;;5051763;28;20231;-79
2023/04/22 08:34:46;;;;;;;6.00;4.30;;;;;;;;;;5023747;28;20781;-80
2023/04/22 08:37:21;;;;;;;6.40;4.18;;;;;;;;;;5017652;28;20215;-81
2023/04/22 08:39:47;;;;;;;5.70;3.80;;;;;;;;;;5030824;28;20225;-82
2023/04/22 08:42:13;;;;;;;8.02;4.10;;;;;;;;;;5072470;28;20227;-81
2023/04/22 08:44:38;;;;;;;5.28;4.25;;;;;;;;;;5011461;28;20594;-79
2023/04/22 08:47:04;;;;;;;5.55;4.10;;;;;;;;;;5021657;28;20223;-80
2023/04/22 08:49:30;;;;;;;6.75;3.83;;;;;;;;;;5043576;28;20244;-81
2023/04/22 08:51:55;;;;;;;4.32;3.60;;;;;;;;;;5043171;28;20233;-80
2023/04/22 08:54:22;;;;;;;5.30;3.80;;;;;;;;;;5026557;28;20222;-78
2023/04/22 08:56:48;;;;;;;4.65;3.80;;;;;;;;;;5044692;28;20317;-83
2023/04/22 08:59:13;;;;;;;5.18;3.60;;;;;;;;;;5029315;28;20484;-81
2023/04/22 09:01:39;;;;;;;5.45;4.03;;;;;;;;;;5043034;28;20230;-81
2023/04/22 09:04:05;;;;;;;4.90;3.47;;;;;;;;;;5034411;28;20247;-80
2023/04/22 09:06:33;;;;;;;3.75;3.45;;;;;;;;;;5017855;28;20599;-81
2023/04/22 09:09:01;;;;;;;5.22;4.10;;;;;;;;;;5025544;28;20230;-81
2023/04/22 09:11:30;;;;;;;4.28;3.53;;;;;;;;;;5013885;28;20234;-78
2023/04/22 09:13:57;;;;;;;6.05;3.80;;;;;;;;;;5043621;28;20223;-78
2023/04/22 09:16:23;;;;;;;3.90;3.47;;;;;;;;;;5025971;28;20235;-80
2023/04/22 09:18:51;;;;;;;4.43;3.30;;;;;;;;;;5023194;28;20224;-79
2023/04/22 09:21:16;;;;;;;3.60;3.33;;;;;;;;;;5025259;28;20294;-79
2023/04/22 09:23:49;;;;;;;3.58;3.28;;;;;;;;;;5052267;28;20218;-80
2023/04/22 09:26:17;;;;;;;4.00;3.60;;;;;;;;;;5045877;28;20256;-79
2023/04/22 09:28:57;;;;;;;3.80;3.42;;;;;;;;;;5022930;28;20211;-79
2023/04/22 09:31:22;;;;;;;3.00;2.80;;;;;;;;;;5042001;28;20325;-80
2023/04/22 09:33:52;;;;;;;4.80;3.20;;;;;;;;;;5058270;28;20313;-80
2023/04/22 09:36:27;;;;;;;3.88;3.30;;;;;;;;;;5023331;28;20233;-80
2023/04/22 09:38:54;;;;;;;4.72;3.50;;;;;;;;;;5035603;28;20282;-80
2023/04/22 09:41:35;;;;;;;5.88;3.30;;;;;;;;;;5021503;28;21945;-79
2023/04/22 09:44:02;;;;;;;3.63;3.33;;;;;;;;;;5054644;28;20788;-79
2023/04/22 09:46:28;;;;;;;5.45;3.17;;;;;;;;;;5016670;28;20207;-79
2023/04/22 09:48:54;;;;;;;5.57;3.55;;;;;;;;;;5039733;28;20312;-79
2023/04/22 09:51:20;;;;;;;4.78;2.90;;;;;;;;;;5035023;28;20237;-79
2023/04/22 09:53:56;;;;;;;5.53;3.00;;;;;;;;;;5008998;28;20272;-80
2023/04/22 09:56:38;;;;;;;6.28;3.03;;;;;;;;;;5024383;28;20230;-80
2023/04/22 09:59:04;;;;;;;4.13;3.42;;;;;;;;;;5025959;28;20265;-81
2023/04/22 10:01:40;;;;;;;3.20;2.90;;;;;;;;;;5013656;28;20227;-79
2023/04/22 10:04:10;;;;;;;3.13;2.92;;;;;;;;;;5019790;28;20218;-80
2023/04/22 10:06:36;;;;;;;4.18;3.08;;;;;;;;;;5013241;28;20227;-80
2023/04/22 10:09:04;;;;;;;5.90;3.15;;;;;;;;;;5015917;28;20222;-80
2023/04/22 10:11:30;;;;;;;3.95;3.03;;;;;;;;;;5017853;28;20231;-78
2023/04/22 10:13:56;;;;;;;3.45;3.00;;;;;;;;;;5047217;28;20219;-79
2023/04/22 10:16:23;;;;;;;4.63;3.08;;;;;;;;;;5063165;28;20233;-78
2023/04/22 10:18:48;;;;;;;4.65;2.80;;;;;;;;;;5013980;28;20220;-80
2023/04/22 10:21:14;;;;;;;3.17;2.80;;;;;;;;;;5037962;28;20463;-79
2023/04/22 10:23:44;;;;;;;3.55;2.60;;;;;;;;;;5025752;28;20219;-82
2023/04/22 10:26:10;;;;;;;3.95;2.60;;;;;;;;;;5039427;28;20237;-79
2023/04/22 10:28:42;;;;;;;3.22;2.60;;;;;;;;;;5056615;28;20224;-79
2023/04/22 10:31:22;;;;;;;2.88;2.50;;;;;;;;;;5036254;28;20230;-79
2023/04/22 10:33:50;;;;;;;2.97;2.78;;;;;;;;;;5029285;28;20754;-79
2023/04/22 10:36:21;;;;;;;4.80;2.60;;;;;;;;;;5047321;28;20222;-79
2023/04/22 10:38:49;;;;;;;2.35;2.15;;;;;;;;;;5039439;28;20223;-81
2023/04/22 10:41:15;;;;;;;2.83;2.25;;;;;;;;;;5029977;28;20242;-79
2023/04/22 10:43:41;;;;;;;2.72;2.53;;;;;;;;;;5055161;28;20774;-78
2023/04/22 10:46:07;;;;;;;2.67;2.30;;;;;;;;;;5036815;28;20236;-79
2023/04/22 10:49:03;;;;;;;2.47;2.22;;;;;;;;;;5039494;28;20219;-78
2023/04/22 10:51:45;;;;;;;2.55;2.25;;;;;;;;;;5049021;28;20222;-78
2023/04/22 10:54:26;;;;;;;3.95;2.30;;;;;;;;;;5037939;28;20223;-80
2023/04/22 10:57:10;;;;;;;2.90;2.10;;;;;;;;;;5065321;28;20241;-78
2023/04/22 10:59:54;;;;;;;2.22;1.88;;;;;;;;;;5047351;28;20239;-78
2023/04/22 11:02:20;;;;;;;1.90;1.80;;;;;;;;;;5043291;28;20244;-78
2023/04/22 11:04:46;;;;;;;2.65;1.92;;;;;;;;;;5029617;28;20245;-79
2023/04/22 11:07:30;;;;;;;4.60;2.05;;;;;;;;;;5040879;28;20227;-79
2023/04/22 11:10:05;;;;;;;2.63;2.15;;;;;;;;;;5058252;28;20234;-78
2023/04/22 11:12:37;;;;;;;2.03;1.80;;;;;;;;;;5036766;28;20257;-78
2023/04/22 11:15:05;;;;;;;2.15;1.95;;;;;;;;;;5064400;28;20222;-80
2023/04/22 11:17:36;;;;;;;2.25;1.90;;;;;;;;;;5066817;28;20214;-79
2023/04/22 11:20:03;;;;;;;3.40;2.20;;;;;;;;;;5028871;28;20262;-79
2023/04/22 11:22:33;;;;;;;1.98;1.80;;;;;;;;;;5040785;28;20207;-79
2023/04/22 11:24:59;;;;;;;3.42;1.90;;;;;;;;;;5012066;28;20261;-78
2023/04/22 11:27:29;;;;;;;2.95;2.10;;;;;;;;;;5034692;28;20214;-79
2023/04/22 11:30:00;;;;;;;2.58;2.20;;;;;;;;;;5031362;28;20245;-80
2023/04/22 11:32:27;;;;;;;2.50;2.00;;;;;;;;;;5051200;28;20226;-77
2023/04/22 11:34:55;;;;;;;2.58;2.03;;;;;;;;;;5027158;28;20719;-77
2023/04/22 11:37:20;;;;;;;2.78;1.90;;;;;;;;;;5048587;28;20748;-78
2023/04/22 11:39:54;;;;;;;2.38;2.00;;;;;;;;;;5051021;28;20215;-79
2023/04/22 11:42:24;;;;;;;2.40;2.00;;;;;;;;;;5051687;28;21032;-78
2023/04/22 11:44:50;;;;;;;2.15;1.80;;;;;;;;;;5033223;28;20233;-79
2023/04/22 11:47:18;;;;;;;2.35;1.80;;;;;;;;;;5008159;28;20235;-79
2023/04/22 11:49:55;;;;;;;3.83;1.90;;;;;;;;;;5027174;28;20947;-78
2023/04/22 11:52:20;;;;;;;1.83;1.55;;;;;;;;;;5043927;28;20286;-78
2023/04/22 11:54:46;;;;;;;2.05;1.77;;;;;;;;;;5049317;28;20210;-80
2023/04/22 11:57:14;;;;;;;2.22;1.75;;;;;;;;;;5021335;28;20223;-79
2023/04/22 11:59:42;;;;;;;3.10;1.90;;;;;;;;;;5035993;28;20218;-78
2023/04/22 12:02:11;;;;;;;2.10;1.92;;;;;;;;;;5033406;28;20231;-77
2023/04/22 12:04:39;;;;;;;1.80;1.70;;;;;;;;;;5055938;28;20211;-79
2023/04/22 12:07:04;;;;;;;3.13;2.00;;;;;;;;;;5044437;28;20572;-79
2023/04/22 12:09:30;;;;;;;3.38;1.70;;;;;;;;;;5020720;28;20210;-80
2023/04/22 12:11:55;;;;;;;2.78;2.03;;;;;;;;;;5033496;28;20445;-77
2023/04/22 12:14:33;;;;;;;2.35;1.80;;;;;;;;;;5031486;28;20225;-77
2023/04/22 12:17:04;;;;;;;3.55;2.10;;;;;;;;;;5027703;28;20230;-78
2023/04/22 12:19:32;;;;;;;2.75;1.85;;;;;;;;;;5053634;28;20242;-77
2023/04/22 12:21:58;;;;;;;2.08;1.88;;;;;;;;;;5022438;28;20715;-78
2023/04/22 12:24:31;;;;;;;2.30;2.20;;;;;;;;;;5035541;28;20222;-78
2023/04/22 12:27:00;;;;;;;2.28;1.80;;;;;;;;;;5011101;28;20219;-79
2023/04/22 12:29:31;;;;;;;2.28;1.98;;;;;;;;;;5032208;28;20215;-78
2023/04/22 12:31:59;;;;;;;2.30;2.05;;;;;;;;;;5014099;28;20218;-78
2023/04/22 12:34:25;;;;;;;2.20;2.10;;;;;;;;;;5032981;28;20225;-77
2023/04/22 12:36:50;;;;;;;3.08;2.13;;;;;;;;;;5021786;28;20639;-77
2023/04/22 12:39:19;;;;;;;3.75;2.38;;;;;;;;;;5010444;28;20219;-78
2023/04/22 12:41:49;;;;;;;2.42;2.03;;;;;;;;;;5047892;28;20219;-77
2023/04/22 12:44:18;;;;;;;3.03;2.20;;;;;;;;;;5036869;28;20222;-77
2023/04/22 12:46:45;;;;;;;3.35;2.03;;;;;;;;;;5029908;28;20268;-77
2023/04/22 12:49:13;;;;;;;2.80;2.00;;;;;;;;;;5031283;28;20227;-77
2023/04/22 12:51:38;;;;;;;3.05;2.00;;;;;;;;;;5022904;28;20646;-77
2023/04/22 12:54:09;;;;;;;2.50;2.00;;;;;;;;;;5037824;28;20234;-80
2023/04/22 12:56:35;;;;;;;2.30;2.10;;;;;;;;;;5053457;28;20234;-78
2023/04/22 12:59:02;;;;;;;2.30;2.10;;;;;;;;;;5069571;28;20224;-79
2023/04/22 13:01:32;;;;;;;2.35;1.95;;;;;;;;;;5032446;28;20218;-79
2023/04/22 13:03:57;;;;;;;2.10;1.90;;;;;;;;;;5051219;28;20212;-81
2023/04/22 13:06:26;;;;;;;3.83;2.05;;;;;;;;;;5011528;28;20249;-80
2023/04/22 13:08:51;;;;;;;3.15;2.10;;;;;;;;;;5035137;28;20213;-77
2023/04/22 13:11:20;;;;;;;2.30;2.10;;;;;;;;;;5033277;28;20219;-80
2023/04/22 13:13:46;;;;;;;3.50;2.20;;;;;;;;;;5046122;28;20672;-78
2023/04/22 13:16:11;;;;;;;2.45;2.25;;;;;;;;;;5059687;28;20238;-78
2023/04/22 13:18:37;;;;;;;2.30;2.05;;;;;;;;;;5029443;28;20210;-78
2023/04/22 13:21:02;;;;;;;3.33;2.13;;;;;;;;;;5034168;28;20340;-79
2023/04/22 13:23:28;;;;;;;2.60;2.40;;;;;;;;;;5021030;28;20676;-79
2023/04/22 13:25:57;;;;;;;2.17;2.05;;;;;;;;;;5059830;28;20215;-81
2023/04/22 13:28:22;;;;;;;2.92;2.08;;;;;;;;;;5025834;28;20226;-78
2023/04/22 13:30:48;;;;;;;2.22;2.03;;;;;;;;;;5046924;28;20223;-77
2023/04/22 13:33:16;;;;;;;3.75;2.45;;;;;;;;;;5067395;28;20217;-77
2023/04/22 13:35:44;;;;;;;2.58;2.22;;;;;;;;;;5028458;28;20227;-80
2023/04/22 13:38:09;;;;;;;2.85;2.30;;;;;;;;;;5025321;28;20272;-81
2023/04/22 13:40:36;;;;;;;3.47;2.42;;;;;;;;;;5049486;28;20215;-78
2023/04/22 13:43:07;;;;;;;5.25;2.70;;;;;;;;;;5045610;28;20216;-77
2023/04/22 13:45:32;;;;;;;3.28;2.35;;;;;;;;;;5003105;28;20223;-79
2023/04/22 13:47:58;;;;;;;2.70;2.33;;;;;;;;;;5028528;28;20214;-81
2023/04/22 13:50:23;;;;;;;3.10;2.40;;;;;;;;;;5033034;28;20237;-77
2023/04/22 13:52:49;;;;;;;3.30;2.55;;;;;;;;;;5002156;28;20695;-79
2023/04/22 13:55:14;;;;;;;3.15;2.50;;;;;;;;;;5020001;28;20203;-77
2023/04/22 13:57:40;;;;;;;2.58;2.33;;;;;;;;;;5044041;28;20222;-80
2023/04/22 14:00:08;;;;;;;3.35;2.25;;;;;;;;;;5076599;28;20227;-77
2023/04/22 14:02:37;;;;;;;2.70;2.50;;;;;;;;;;5054778;28;20356;-77
2023/04/22 14:05:04;;;;;;;2.20;2.00;;;;;;;;;;5020762;28;20226;-79
2023/04/22 14:07:30;;;;;;;3.28;1.95;;;;;;;;;;5035899;28;20218;-77
2023/04/22 14:10:04;;;;;;;2.25;1.80;;;;;;;;;;5057115;28;20235;-80
2023/04/22 14:12:32;;;;;;;4.00;1.70;;;;;;;;;;5059839;28;20223;-80
2023/04/22 14:14:58;;;;;;;1.92;1.80;;;;;;;;;;5044248;28;20260;-76
2023/04/22 14:17:25;;;;;;;2.13;1.55;;;;;;;;;;5033817;28;20842;-79
2023/04/22 14:19:51;;;;;;;2.67;1.60;;;;;;;;;;5025920;28;20670;-78
2023/04/22 14:22:18;;;;;;;3.03;1.60;;;;;;;;;;5039444;28;20233;-79
2023/04/22 14:24:47;;;;;;;1.83;1.58;;;;;;;;;;5057638;28;20219;-79
2023/04/22 14:27:13;;;;;;;2.95;1.90;;;;;;;;;;5032670;28;20223;-77
2023/04/22 14:29:38;;;;;;;3.65;1.70;;;;;;;;;;5033863;28;20240;-79
2023/04/22 14:32:06;;;;;;;2.67;2.00;;;;;;;;;;5034062;28;20223;-78
2023/04/22 14:34:34;;;;;;;2.30;2.00;;;;;;;;;;5022841;28;20222;-78
2023/04/22 14:37:01;;;;;;;3.70;1.95;;;;;;;;;;5043300;28;20245;-79
2023/04/22 14:39:29;;;;;;;2.38;1.90;;;;;;;;;;5047082;28;20211;-78
2023/04/22 14:41:56;;;;;;;3.28;2.08;;;;;;;;;;5040220;28;20223;-78
2023/04/22 14:44:25;;;;;;;2.58;1.77;;;;;;;;;;5043642;28;20219;-79
2023/04/22 14:46:50;;;;;;;2.90;1.85;;;;;;;;;;5010258;28;20220;-77
2023/04/22 14:49:18;;;;;;;3.38;1.95;;;;;;;;;;5042617;28;20219;-78